createdAt,value
2023-11-08T00:02:22.101Z,8.33
2023-11-08T00:04:52.967Z,8.33
2023-11-08T00:07:20.038Z,8.31
2023-11-08T00:09:47.038Z,8.23
2023-11-08T00:12:17.278Z,8.30
2023-11-08T00:14:45.770Z,8.47
2023-11-08T00:17:14.846Z,8.34
2023-11-08T00:19:42.115Z,8.36
2023-11-08T00:22:09.135Z,8.33
2023-11-08T00:24:36.159Z,8.46
2023-11-08T00:27:03.360Z,8.44
2023-11-08T00:29:30.295Z,8.64
2023-11-08T00:31:57.301Z,8.62
2023-11-08T00:34:25.948Z,8.60
2023-11-08T00:36:53.247Z,8.55
2023-11-08T00:39:20.474Z,8.49
2023-11-08T00:41:47.994Z,8.59
2023-11-08T00:44:15.282Z,8.62
2023-11-08T00:46:42.718Z,8.69
2023-11-08T00:49:10.383Z,8.76
2023-11-08T00:51:41.034Z,8.66
2023-11-08T00:54:08.475Z,8.83
2023-11-08T00:56:35.902Z,8.75
2023-11-08T00:59:02.901Z,8.95
2023-11-08T01:01:29.943Z,8.91
2023-11-08T01:03:59.217Z,8.72
2023-11-08T01:06:28.335Z,8.75
2023-11-08T01:08:58.900Z,8.62
2023-11-08T01:11:25.919Z,8.67
2023-11-08T01:13:52.943Z,8.55
2023-11-08T01:16:20.899Z,8.47
2023-11-08T01:18:48.356Z,8.46
2023-11-08T01:21:16.274Z,8.34
2023-11-08T01:23:43.258Z,8.27
2023-11-08T01:26:12.097Z,8.30
2023-11-08T01:28:39.965Z,8.28
2023-11-08T01:31:06.869Z,8.18
2023-11-08T01:33:34.365Z,8.04
2023-11-08T01:36:01.580Z,8.03
2023-11-08T01:38:28.797Z,8.11
2023-11-08T01:40:55.635Z,8.12
2023-11-08T01:43:32.462Z,8.17
2023-11-08T01:46:08.028Z,8.20
2023-11-08T01:48:40.739Z,8.07
2023-11-08T01:51:10.014Z,8.10
2023-11-08T01:53:41.534Z,8.08
2023-11-08T01:56:11.200Z,8.14
2023-11-08T01:58:43.408Z,8.03
2023-11-08T02:01:11.350Z,8.05
2023-11-08T02:03:42.013Z,8.12
2023-11-08T02:06:12.978Z,8.07
2023-11-08T02:08:41.433Z,8.09
2023-11-08T02:11:09.765Z,8.07
2023-11-08T02:13:37.412Z,8.02
2023-11-08T02:16:06.967Z,8.06
2023-11-08T02:18:34.203Z,8.03
2023-11-08T02:21:02.325Z,8.05
2023-11-08T02:23:30.891Z,8.11
2023-11-08T02:26:01.866Z,8.13
2023-11-08T02:28:29.811Z,8.09
2023-11-08T02:30:57.484Z,8.20
2023-11-08T02:33:26.722Z,8.11
2023-11-08T02:35:54.890Z,8.10
2023-11-08T02:38:22.798Z,8.05
2023-11-08T02:40:50.088Z,7.99
2023-11-08T02:43:19.028Z,7.99
2023-11-08T02:45:46.055Z,8.03
2023-11-08T02:48:14.097Z,8.01
2023-11-08T02:50:42.811Z,7.98
2023-11-08T02:53:09.967Z,7.96
2023-11-08T02:55:38.057Z,7.90
2023-11-08T02:58:05.106Z,7.89
2023-11-08T03:00:48.682Z,7.90
2023-11-08T03:03:15.706Z,7.88
2023-11-08T03:05:42.720Z,7.89
2023-11-08T03:08:09.741Z,7.97
2023-11-08T03:10:37.155Z,8.01
2023-11-08T03:13:04.302Z,8.02
2023-11-08T03:15:33.146Z,8.06
2023-11-08T03:18:01.620Z,7.96
2023-11-08T03:20:28.542Z,7.98
2023-11-08T03:22:56.091Z,7.96
2023-11-08T03:25:23.808Z,8.11
2023-11-08T03:27:51.369Z,8.01
2023-11-08T03:30:18.721Z,8.10
2023-11-08T03:32:47.283Z,7.97
2023-11-08T03:35:15.936Z,8.01
2023-11-08T03:37:43.539Z,8.07
2023-11-08T03:40:12.035Z,8.17
2023-11-08T03:42:39.592Z,8.16
2023-11-08T03:45:08.430Z,8.11
2023-11-08T03:47:35.728Z,8.07
2023-11-08T03:50:04.940Z,8.15
2023-11-08T03:52:32.252Z,8.07
2023-11-08T03:54:59.293Z,8.24
2023-11-08T03:57:26.287Z,8.11
2023-11-08T03:59:54.630Z,8.19
2023-11-08T04:02:22.344Z,8.38
2023-11-08T04:04:49.926Z,8.19
2023-11-08T04:07:24.886Z,8.05
2023-11-08T04:09:51.831Z,8.02
2023-11-08T04:12:23.996Z,8.02
2023-11-08T04:14:51.321Z,8.11
2023-11-08T04:17:18.173Z,8.13
2023-11-08T04:19:45.117Z,8.23
2023-11-08T04:22:12.540Z,8.28
2023-11-08T04:24:42.286Z,8.14
2023-11-08T04:27:09.769Z,7.96
2023-11-08T04:29:36.640Z,8.16
2023-11-08T04:32:04.864Z,8.33
2023-11-08T04:34:32.247Z,8.50
2023-11-08T04:36:59.169Z,8.16
2023-11-08T04:39:28.685Z,8.09
2023-11-08T04:41:57.237Z,8.22
2023-11-08T04:44:24.315Z,8.26
2023-11-08T04:46:51.397Z,8.05
2023-11-08T04:49:19.382Z,8.17
2023-11-08T04:51:46.373Z,8.17
2023-11-08T04:54:14.965Z,8.30
2023-11-08T04:56:42.238Z,8.42
2023-11-08T04:59:10.413Z,8.51
2023-11-08T05:01:37.272Z,8.49
2023-11-08T05:04:04.683Z,8.22
2023-11-08T05:06:32.136Z,8.37
2023-11-08T05:08:59.312Z,8.25
2023-11-08T05:11:26.769Z,8.00
2023-11-08T05:13:53.796Z,7.95
2023-11-08T05:16:23.530Z,7.87
2023-11-08T05:18:50.934Z,7.94
2023-11-08T05:21:18.387Z,7.92
2023-11-08T05:23:45.469Z,7.87
2023-11-08T05:26:12.840Z,7.96
2023-11-08T05:28:39.863Z,7.98
2023-11-08T05:31:07.056Z,7.88
2023-11-08T05:33:35.484Z,7.88
2023-11-08T05:36:02.652Z,7.80
2023-11-08T05:38:31.984Z,7.86
2023-11-08T05:40:59.153Z,7.78
2023-11-08T05:43:26.549Z,7.80
2023-11-08T05:45:53.524Z,7.85
2023-11-08T05:48:20.626Z,7.82
2023-11-08T05:50:48.963Z,7.85
2023-11-08T05:53:16.151Z,7.82
2023-11-08T05:55:44.295Z,7.74
2023-11-08T05:58:13.684Z,7.74
2023-11-08T06:00:42.253Z,7.79
2023-11-08T06:03:09.490Z,7.67
2023-11-08T06:05:36.557Z,7.57
2023-11-08T06:08:05.452Z,7.47
2023-11-08T06:10:34.743Z,7.51
2023-11-08T06:13:02.840Z,7.67
2023-11-08T06:15:30.281Z,7.66
2023-11-08T06:17:57.821Z,7.69
2023-11-08T06:20:24.840Z,7.63
2023-11-08T06:22:52.035Z,7.77
2023-11-08T06:25:20.423Z,7.72
2023-11-08T06:27:47.862Z,7.78
2023-11-08T06:30:15.656Z,8.00
2023-11-08T06:32:42.791Z,8.01
2023-11-08T06:35:10.436Z,7.99
2023-11-08T06:37:37.512Z,7.97
2023-11-08T06:40:07.346Z,8.04
2023-11-08T06:42:36.215Z,7.97
2023-11-08T06:45:04.079Z,8.20
2023-11-08T06:47:31.913Z,8.20
2023-11-08T06:49:59.299Z,8.26
2023-11-08T06:52:26.611Z,8.37
2023-11-08T06:54:53.919Z,8.61
2023-11-08T06:57:21.137Z,8.73
2023-11-08T06:59:49.458Z,8.82
2023-11-08T07:02:16.402Z,8.91
2023-11-08T07:04:46.278Z,9.05
2023-11-08T07:07:14.144Z,9.23
2023-11-08T07:09:41.219Z,9.33
2023-11-08T07:12:08.729Z,9.40
2023-11-08T07:14:35.869Z,9.89
2023-11-08T07:17:04.425Z,10.09
2023-11-08T07:19:31.710Z,10.14
2023-11-08T07:21:58.895Z,10.21
2023-11-08T07:24:25.833Z,10.26
2023-11-08T07:26:53.592Z,10.53
2023-11-08T07:29:20.785Z,10.49
2023-11-08T07:31:47.708Z,10.03
2023-11-08T07:34:16.241Z,9.80
2023-11-08T07:36:44.472Z,9.48
2023-11-08T07:39:13.422Z,9.64
2023-11-08T07:41:41.702Z,9.68
2023-11-08T07:44:10.508Z,9.77
2023-11-08T07:46:37.910Z,9.97
2023-11-08T07:49:05.541Z,10.55
2023-11-08T07:51:34.067Z,10.89
2023-11-08T07:54:00.980Z,10.97
2023-11-08T07:56:29.253Z,11.05
2023-11-08T07:58:56.923Z,11.09
2023-11-08T08:01:24.270Z,11.13
2023-11-08T08:03:51.991Z,11.20
2023-11-08T08:06:20.056Z,11.45
2023-11-08T08:08:48.357Z,11.77
2023-11-08T08:11:16.993Z,11.29
2023-11-08T08:13:44.369Z,12.08
2023-11-08T08:16:11.232Z,12.65
2023-11-08T08:18:39.001Z,12.87
2023-11-08T08:21:07.884Z,14.34
2023-11-08T08:23:34.991Z,15.66
2023-11-08T08:26:04.249Z,16.56
2023-11-08T08:28:33.888Z,17.45
2023-11-08T08:31:01.191Z,18.14
2023-11-08T08:33:28.646Z,18.70
2023-11-08T08:35:56.017Z,19.31
2023-11-08T08:38:24.132Z,19.85
2023-11-08T08:40:51.053Z,20.29
2023-11-08T08:43:21.597Z,20.29
2023-11-08T08:45:52.402Z,19.31
2023-11-08T08:48:19.790Z,19.44
2023-11-08T08:50:46.787Z,19.91
2023-11-08T08:53:14.352Z,20.60
2023-11-08T08:55:42.988Z,21.05
2023-11-08T08:58:10.701Z,21.44
2023-11-08T09:00:39.143Z,22.15
2023-11-08T09:03:06.079Z,22.74
2023-11-08T09:05:33.796Z,22.86
2023-11-08T09:08:00.858Z,23.40
2023-11-08T09:10:27.992Z,23.61
2023-11-08T09:12:55.380Z,22.59
2023-11-08T09:15:22.941Z,22.48
2023-11-08T09:17:51.529Z,21.67
2023-11-08T09:20:18.841Z,22.12
2023-11-08T09:22:45.856Z,22.44
2023-11-08T09:25:13.080Z,20.99
2023-11-08T09:27:41.237Z,21.48
2023-11-08T09:30:09.591Z,20.67
2023-11-08T09:32:36.899Z,21.20
2023-11-08T09:35:06.439Z,20.83
2023-11-08T09:37:33.635Z,20.47
2023-11-08T09:40:02.789Z,21.29
2023-11-08T09:42:30.355Z,21.61
2023-11-08T09:45:00.669Z,22.30
2023-11-08T09:47:28.070Z,20.97
2023-11-08T09:49:57.527Z,21.41
2023-11-08T09:52:27.690Z,20.05
2023-11-08T09:54:54.766Z,19.89
2023-11-08T09:57:24.964Z,18.67
2023-11-08T09:59:53.101Z,19.02
2023-11-08T10:02:20.494Z,18.97
2023-11-08T10:04:55.264Z,17.16
2023-11-08T10:07:24.544Z,17.53
2023-11-08T10:09:54.127Z,18.43
2023-11-08T10:12:22.383Z,18.49
2023-11-08T10:14:59.031Z,19.41
2023-11-08T10:19:29.758Z,17.08
2023-11-08T10:20:30.467Z,16.48
2023-11-08T10:22:58.241Z,16.91
2023-11-08T10:25:27.107Z,19.73
2023-11-08T10:28:03.036Z,18.98
2023-11-08T10:30:36.859Z,14.73
2023-11-08T10:33:09.812Z,15.13
2023-11-08T10:35:40.598Z,15.37
2023-11-08T10:38:12.509Z,15.44
2023-11-08T10:40:46.063Z,15.32
2023-11-08T10:43:21.367Z,15.39
2023-11-08T10:45:50.553Z,15.33
2023-11-08T10:48:21.073Z,15.36
2023-11-08T10:50:52.863Z,15.47
2023-11-08T10:53:19.900Z,15.42
2023-11-08T10:55:49.769Z,15.56
2023-11-08T10:58:21.864Z,15.41
2023-11-08T11:00:54.976Z,15.42
2023-11-08T11:03:23.744Z,15.59
2023-11-08T11:05:55.414Z,15.53
2023-11-08T11:08:23.040Z,14.86
2023-11-08T11:10:51.441Z,15.71
2023-11-08T11:13:32.514Z,15.61
2023-11-08T11:16:14.414Z,14.88
2023-11-08T11:18:53.033Z,14.18
2023-11-08T11:21:27.275Z,13.78
2023-11-08T11:23:54.876Z,14.25
2023-11-08T11:26:46.731Z,13.65
2023-11-08T11:29:20.368Z,14.09
2023-11-08T11:31:48.048Z,14.46
2023-11-08T11:34:44.891Z,14.31
2023-11-08T11:37:14.836Z,14.12
2023-11-08T11:40:04.273Z,13.30
2023-11-08T11:42:32.976Z,13.16
2023-11-08T11:45:01.394Z,12.66
2023-11-08T11:47:30.958Z,12.66
2023-11-08T11:50:00.465Z,13.09
2023-11-08T11:52:31.090Z,13.48
2023-11-08T11:55:00.265Z,14.19
2023-11-08T11:57:30.077Z,13.80
2023-11-08T12:00:01.390Z,13.56
2023-11-08T12:02:30.580Z,12.97
2023-11-08T12:04:59.794Z,13.03
2023-11-08T12:07:28.355Z,13.31
2023-11-08T12:09:56.038Z,13.22
2023-11-08T12:12:27.677Z,13.17
2023-11-08T12:14:55.084Z,13.06
2023-11-08T12:17:25.681Z,13.43
2023-11-08T12:19:55.820Z,13.30
2023-11-08T12:22:23.861Z,13.23
2023-11-08T12:24:52.216Z,13.43
2023-11-08T12:27:19.191Z,13.85
2023-11-08T12:29:46.328Z,14.11
2023-11-08T12:32:14.100Z,14.25
2023-11-08T12:34:44.058Z,14.33
2023-11-08T12:37:11.898Z,14.27
2023-11-08T12:39:39.180Z,14.34
2023-11-08T12:42:15.753Z,14.47
2023-11-08T12:44:47.642Z,14.57
2023-11-08T12:47:14.868Z,14.50
2023-11-08T12:49:43.634Z,14.49
2023-11-08T12:52:10.900Z,14.51
2023-11-08T12:54:38.511Z,14.48
2023-11-08T12:57:05.801Z,14.44
2023-11-08T12:59:32.689Z,14.30
2023-11-08T13:02:12.819Z,14.31
2023-11-08T13:04:41.031Z,14.32
2023-11-08T13:07:11.341Z,14.27
2023-11-08T13:09:39.190Z,14.15
2023-11-08T13:12:08.987Z,14.21
2023-11-08T13:14:36.469Z,14.21
2023-11-08T13:17:03.453Z,14.28
2023-11-08T13:19:31.083Z,14.17
2023-11-08T13:21:58.058Z,14.23
2023-11-08T13:24:26.428Z,14.25
2023-11-08T13:26:54.718Z,13.93
2023-11-08T13:29:22.304Z,13.99
2023-11-08T13:31:50.693Z,14.00
2023-11-08T13:34:18.417Z,13.89
2023-11-08T13:36:46.406Z,13.87
2023-11-08T13:39:13.852Z,13.93
2023-11-08T13:41:43.679Z,13.92
2023-11-08T13:44:10.733Z,14.03
2023-11-08T13:46:38.216Z,14.18
2023-11-08T13:49:08.285Z,14.31
2023-11-08T13:51:35.580Z,14.03
2023-11-08T13:54:02.601Z,14.14
2023-11-08T13:56:33.370Z,13.99
2023-11-08T13:59:03.901Z,14.03
2023-11-08T14:01:31.095Z,14.03
2023-11-08T14:03:58.010Z,13.73
2023-11-08T14:06:25.429Z,13.48
2023-11-08T14:08:55.369Z,13.51
2023-11-08T14:11:23.558Z,13.56
2023-11-08T14:13:50.551Z,13.84
2023-11-08T14:16:19.747Z,13.74
2023-11-08T14:18:46.750Z,13.91
2023-11-08T14:21:14.579Z,13.74
2023-11-08T14:23:41.520Z,13.88
2023-11-08T14:26:08.562Z,13.84
2023-11-08T14:28:36.708Z,13.77
2023-11-08T14:31:04.514Z,13.87
2023-11-08T14:33:33.758Z,13.81
2023-11-08T14:36:01.109Z,13.93
2023-11-08T14:38:28.437Z,13.95
2023-11-08T14:40:56.672Z,13.98
2023-11-08T14:43:24.660Z,14.07
2023-11-08T14:45:55.631Z,13.96
2023-11-08T14:48:25.989Z,14.07
2023-11-08T14:50:56.905Z,13.87
2023-11-08T14:53:24.242Z,13.96
2023-11-08T14:55:51.941Z,14.05
2023-11-08T14:58:18.919Z,14.10
2023-11-08T15:00:46.568Z,14.14
2023-11-08T15:03:13.648Z,14.16
2023-11-08T15:05:43.220Z,14.06
2023-11-08T15:09:49.089Z,14.02
2023-11-08T15:10:58.511Z,13.97
2023-11-08T15:13:26.501Z,13.51
2023-11-08T15:15:53.953Z,13.24
2023-11-08T15:18:23.565Z,13.34
2023-11-08T15:20:53.297Z,13.25
2023-11-08T15:23:24.517Z,13.21
2023-11-08T15:25:51.856Z,12.95
2023-11-08T15:28:20.488Z,12.91
2023-11-08T15:30:47.449Z,12.78
2023-11-08T15:33:16.237Z,12.65
2023-11-08T15:35:46.326Z,12.74
2023-11-08T15:38:14.311Z,12.58
2023-11-08T15:40:42.821Z,12.35
2023-11-08T15:43:12.125Z,12.15
2023-11-08T15:45:42.565Z,12.07
2023-11-08T15:48:10.164Z,11.99
2023-11-08T15:50:37.720Z,11.89
2023-11-08T15:53:06.372Z,11.75
2023-11-08T15:55:34.604Z,11.77
2023-11-08T15:58:04.871Z,11.63
2023-11-08T16:00:32.309Z,11.62
2023-11-08T16:02:59.436Z,11.46
2023-11-08T16:05:27.131Z,11.42
2023-11-08T16:07:54.073Z,11.45
2023-11-08T16:10:21.259Z,11.53
2023-11-08T16:12:48.399Z,11.49
2023-11-08T16:15:17.854Z,11.56
2023-11-08T16:17:47.798Z,11.44
2023-11-08T16:20:15.536Z,11.36
2023-11-08T16:22:42.496Z,11.41
2023-11-08T16:25:10.544Z,11.12
2023-11-08T16:27:43.800Z,10.99
2023-11-08T16:30:12.439Z,10.99
2023-11-08T16:32:43.566Z,10.96
2023-11-08T16:35:12.317Z,10.94
2023-11-08T16:37:40.875Z,10.98
2023-11-08T16:40:13.656Z,10.92
2023-11-08T16:42:40.939Z,10.87
2023-11-08T16:45:09.284Z,10.93
2023-11-08T16:47:36.744Z,10.99
2023-11-08T16:50:06.889Z,11.10
2023-11-08T16:52:33.983Z,11.08
2023-11-08T16:55:01.269Z,11.10
2023-11-08T16:57:28.794Z,10.85
2023-11-08T16:59:56.993Z,10.81
2023-11-08T17:02:23.971Z,10.84
2023-11-08T17:04:52.192Z,10.89
2023-11-08T17:07:23.455Z,10.89
2023-11-08T17:09:50.723Z,10.87
2023-11-08T17:12:18.553Z,10.44
2023-11-08T17:14:45.801Z,10.31
2023-11-08T17:17:12.829Z,10.21
2023-11-08T17:19:42.893Z,10.22
2023-11-08T17:22:10.346Z,10.25
2023-11-08T17:24:40.734Z,10.25
2023-11-08T17:27:08.528Z,10.27
2023-11-08T17:29:37.973Z,9.99
2023-11-08T17:32:06.001Z,9.91
2023-11-08T17:34:34.017Z,9.86
2023-11-08T17:37:01.138Z,9.77
2023-11-08T17:39:29.709Z,9.84
2023-11-08T17:41:58.078Z,9.90
2023-11-08T17:44:25.061Z,10.00
2023-11-08T17:46:53.166Z,9.88
2023-11-08T17:49:21.227Z,9.74
2023-11-08T17:51:48.855Z,9.59
2023-11-08T17:54:16.285Z,9.66
2023-11-08T17:56:47.619Z,9.54
2023-11-08T17:59:15.909Z,9.50
2023-11-08T18:01:45.583Z,9.53
2023-11-08T18:04:12.838Z,9.54
2023-11-08T18:06:40.494Z,9.55
2023-11-08T18:09:08.715Z,9.49
2023-11-08T18:11:36.342Z,9.43
2023-11-08T18:14:03.300Z,9.40
2023-11-08T18:16:32.088Z,9.46
2023-11-08T18:19:00.189Z,9.52
2023-11-08T18:21:27.919Z,9.62
2023-11-08T18:23:57.220Z,9.58
2023-11-08T18:26:24.545Z,9.49
2023-11-08T18:28:51.963Z,9.51
2023-11-08T18:31:21.454Z,9.69
2023-11-08T18:33:49.938Z,9.69
2023-11-08T18:36:17.356Z,9.73
2023-11-08T18:38:44.434Z,9.75
2023-11-08T18:41:11.991Z,9.78
2023-11-08T18:43:39.090Z,9.79
2023-11-08T18:46:06.419Z,9.79
2023-11-08T18:48:33.805Z,9.87
2023-11-08T18:51:02.413Z,9.96
2023-11-08T18:53:29.747Z,9.91
2023-11-08T18:55:56.924Z,9.97
2023-11-08T18:58:24.341Z,9.94
2023-11-08T19:00:52.708Z,9.82
2023-11-08T19:03:21.004Z,9.83
2023-11-08T19:05:48.340Z,9.69
2023-11-08T19:08:16.993Z,9.64
2023-11-08T19:10:45.700Z,9.66
2023-11-08T19:13:13.673Z,9.51
2023-11-08T19:15:42.078Z,9.36
2023-11-08T19:18:09.214Z,9.31
2023-11-08T19:20:36.760Z,9.18
2023-11-08T19:23:08.509Z,9.05
2023-11-08T19:25:46.546Z,9.00
2023-11-08T19:28:14.588Z,8.85
2023-11-08T19:30:43.295Z,8.96
2023-11-08T19:33:12.445Z,8.95
2023-11-08T19:35:40.585Z,8.94
2023-11-08T19:38:08.434Z,8.87
2023-11-08T19:40:36.882Z,8.84
2023-11-08T19:43:06.805Z,8.95
2023-11-08T19:45:37.376Z,8.89
2023-11-08T19:48:06.955Z,8.88
2023-11-08T19:50:35.374Z,8.83
2023-11-08T19:53:03.802Z,8.74
2023-11-08T19:55:33.913Z,8.62
2023-11-08T19:58:02.809Z,8.59
2023-11-08T20:00:31.409Z,8.53
2023-11-08T20:02:58.956Z,8.53
2023-11-08T20:05:26.035Z,8.48
2023-11-08T20:07:53.406Z,8.46
2023-11-08T20:10:20.526Z,8.46
2023-11-08T20:12:47.671Z,8.50
2023-11-08T20:15:15.507Z,8.44
2023-11-08T20:17:44.266Z,8.45
2023-11-08T20:20:12.463Z,8.46
2023-11-08T20:22:41.713Z,8.42
2023-11-08T20:25:09.798Z,8.35
2023-11-08T20:27:37.535Z,8.53
2023-11-08T20:30:07.535Z,8.35
2023-11-08T20:32:34.961Z,8.35
2023-11-08T20:35:03.990Z,8.31
2023-11-08T20:37:31.492Z,8.45
2023-11-08T20:39:59.126Z,8.47
2023-11-08T20:42:26.814Z,8.43
2023-11-08T20:44:53.910Z,8.59
2023-11-08T20:47:21.129Z,8.77
2023-11-08T20:49:49.308Z,8.86
2023-11-08T20:52:18.778Z,8.85
2023-11-08T20:54:48.420Z,8.91
2023-11-08T20:57:16.068Z,8.92
2023-11-08T20:59:44.140Z,8.83
2023-11-08T21:02:11.738Z,8.89
2023-11-08T21:04:39.165Z,8.87
2023-11-08T21:07:08.600Z,8.87
2023-11-08T21:09:39.380Z,8.98
2023-11-08T21:12:08.623Z,8.83
2023-11-08T21:14:38.760Z,8.85
2023-11-08T21:17:06.533Z,8.82
2023-11-08T21:19:34.097Z,8.63
2023-11-08T21:22:02.082Z,8.70
2023-11-08T21:24:32.315Z,8.79
2023-11-08T21:27:02.324Z,8.87
2023-11-08T21:29:33.929Z,8.81
2023-11-08T21:32:01.523Z,8.77
2023-11-08T21:34:28.454Z,8.65
2023-11-08T21:36:55.465Z,8.82
2023-11-08T21:39:22.624Z,8.78
2023-11-08T21:41:50.527Z,8.70
2023-11-08T21:44:18.783Z,8.62
2023-11-08T21:46:48.861Z,8.66
2023-11-08T21:49:16.456Z,8.46
2023-11-08T21:51:43.812Z,8.39
2023-11-08T21:54:11.290Z,8.38
2023-11-08T21:56:38.641Z,8.20
2023-11-08T21:59:06.153Z,8.14
2023-11-08T22:01:36.097Z,8.09
2023-11-08T22:04:04.971Z,8.05
2023-11-08T22:06:32.974Z,7.93
2023-11-08T22:09:00.097Z,7.96
2023-11-08T22:11:27.024Z,7.96
2023-11-08T22:13:54.785Z,8.01
2023-11-08T22:16:22.641Z,7.81
2023-11-08T22:18:52.032Z,7.59
2023-11-08T22:21:19.756Z,7.58
2023-11-08T22:23:46.683Z,7.51
2023-11-08T22:26:17.081Z,7.57
2023-11-08T22:28:44.594Z,7.54
2023-11-08T22:31:11.850Z,7.55
2023-11-08T22:33:39.705Z,7.59
2023-11-08T22:36:09.197Z,7.66
2023-11-08T22:38:37.536Z,7.67
2023-11-08T22:41:09.638Z,7.72
2023-11-08T22:43:38.061Z,7.84
2023-11-08T22:46:05.497Z,7.90
2023-11-08T22:48:32.918Z,7.97
2023-11-08T22:51:01.130Z,8.08
2023-11-08T22:53:30.728Z,8.04
2023-11-08T22:55:59.190Z,8.05
2023-11-08T22:58:27.019Z,8.01
2023-11-08T23:00:53.935Z,7.96
2023-11-08T23:03:22.121Z,7.81
2023-11-08T23:05:50.195Z,7.90
2023-11-08T23:08:17.315Z,7.88
2023-11-08T23:10:46.191Z,7.79
2023-11-08T23:13:13.496Z,7.87
2023-11-08T23:15:45.596Z,7.95
2023-11-08T23:18:12.709Z,8.02
2023-11-08T23:20:39.970Z,7.95
2023-11-08T23:23:07.831Z,7.93
2023-11-08T23:25:35.427Z,8.09
2023-11-08T23:28:04.254Z,8.17
2023-11-08T23:30:31.855Z,8.10
2023-11-08T23:32:59.009Z,8.11
2023-11-08T23:35:26.286Z,8.12
2023-11-08T23:37:53.485Z,8.07
2023-11-08T23:40:20.806Z,8.16
2023-11-08T23:42:49.254Z,8.13
2023-11-08T23:45:17.835Z,7.93
2023-11-08T23:47:44.894Z,7.95
2023-11-08T23:50:13.048Z,7.89
2023-11-08T23:52:40.078Z,7.90
2023-11-08T23:55:10.312Z,7.93
2023-11-08T23:57:40.245Z,7.92
